SARP/PSS METAR and TAF weather

Enter ICAO airport designator
Station Type Date Time Source
SARP METAR 2021/04/13 22:00 UTC NOAA

SARP 132200Z 14005KT CAVOK 24/18 Q1016


Station Type Date Time Source
SARP Decoded METAR 2021/04/13 22:00 UTC NOAA

Posadas Aero., Argentina (SARP) 27-22S 055-58W 133M
Apr 13, 2021 - 06:00 PM EDT / 2021.04.13 2200 UTC
Wind: from the SE (140 degrees) at 6 MPH (5 KT):0
Visibility: greater than 7 mile(s):0
Temperature: 75 F (24 C)
Dew Point: 64 F (18 C)
Relative Humidity: 69%
Pressure (altimeter): 30.00 in. Hg (1016 hPa)
ob: SARP 132200Z 14005KT CAVOK 24/18 Q1016
cycle: 22

Station Type Date Time Source
SARP TAF 2021/04/13 18:12 UTC NOAA

TAF SARP 131700Z 1318/1418 09005KT 9999 SCT030 TX29/1319Z TN16/1410Z
BECMG 1320/1322 CAVOK PROB40 1408/1412 1500 BR NSC

Example: see airport list